Time;durP1;ratioP1;P1;durP2;ratioP2;P2;SDS_P1;SDS_P2;PMS_P1;PMS_P2;Temp;Humidity;BMP_temperature;BMP_pressure;BME280_temperature;BME280_humidity;BME280_pressure;Samples;Min_cycle;Max_cycle;Signal;HPM_P1;HPM_P2
2021/06/07 00:02:09;;;;;;;12.77;5.57;;;20.80;52.50;;;;;;4313676;33;20086;-36
2021/06/07 00:04:36;;;;;;;9.05;4.60;;;20.70;52.70;;;;;;4314567;33;20158;-38
2021/06/07 00:07:04;;;;;;;12.90;6.30;;;20.60;52.90;;;;;;4315002;33;20074;-38
2021/06/07 00:09:30;;;;;;;12.10;4.55;;;20.60;53.20;;;;;;4313578;33;20500;-38
2021/06/07 00:12:02;;;;;;;13.20;5.65;;;20.40;53.50;;;;;;4312743;33;20536;-38
2021/06/07 00:14:32;;;;;;;14.40;6.07;;;20.30;54.10;;;;;;4343243;33;20090;-38
2021/06/07 00:16:59;;;;;;;14.55;5.85;;;20.20;54.40;;;;;;4343726;33;20146;-38
2021/06/07 00:19:31;;;;;;;13.52;6.00;;;20.20;54.50;;;;;;4326712;33;20162;-38
2021/06/07 00:21:58;;;;;;;13.10;6.25;;;20.10;54.70;;;;;;4326710;33;20122;-38
2021/06/07 00:24:24;;;;;;;13.55;7.30;;;20.10;55.30;;;;;;4326681;33;20087;-38
2021/06/07 00:26:51;;;;;;;17.30;7.93;;;20.10;55.50;;;;;;4326724;33;20594;-37
2021/06/07 00:29:17;;;;;;;35.20;7.62;;;20.20;55.50;;;;;;4326606;33;20099;-38
2021/06/07 00:31:44;;;;;;;19.08;7.22;;;20.20;55.40;;;;;;4313958;33;20087;-37
2021/06/07 00:34:11;;;;;;;20.92;8.50;;;20.20;55.20;;;;;;4326104;33;20059;-38
2021/06/07 00:36:38;;;;;;;13.27;7.00;;;20.30;55.00;;;;;;4326448;33;20099;-38
2021/06/07 00:39:11;;;;;;;20.88;7.78;;;20.30;54.80;;;;;;4326395;33;20241;-38
2021/06/07 00:41:38;;;;;;;17.48;5.28;;;20.30;54.70;;;;;;4315065;33;20168;-38
2021/06/07 00:44:12;;;;;;;13.52;5.90;;;20.40;54.60;;;;;;4314317;33;20300;-38
2021/06/07 00:46:41;;;;;;;11.18;4.90;;;20.40;54.60;;;;;;4326267;33;20072;-39
2021/06/07 00:49:07;;;;;;;8.32;4.90;;;20.50;54.50;;;;;;4314245;33;20165;-38
2021/06/07 00:51:34;;;;;;;10.73;5.05;;;20.60;54.40;;;;;;4325940;33;20067;-40
2021/06/07 00:54:01;;;;;;;7.93;4.05;;;20.60;54.30;;;;;;4326254;33;20183;-38
2021/06/07 00:56:27;;;;;;;9.55;5.40;;;20.70;54.20;;;;;;4327002;33;20052;-39
2021/06/07 00:58:54;;;;;;;6.40;5.00;;;20.80;54.00;;;;;;4328565;33;20097;-37
2021/06/07 01:01:23;;;;;;;13.98;6.05;;;20.90;53.80;;;;;;4328622;33;20070;-38
2021/06/07 01:03:52;;;;;;;7.82;5.78;;;21.10;53.80;;;;;;4328809;33;20156;-38
2021/06/07 01:06:19;;;;;;;12.70;6.22;;;21.30;53.60;;;;;;4326844;33;20048;-38
2021/06/07 01:08:45;;;;;;;15.77;5.53;;;21.50;53.40;;;;;;4328803;33;20063;-38
2021/06/07 01:11:12;;;;;;;21.35;6.20;;;21.70;53.00;;;;;;4328519;33;20071;-39
2021/06/07 01:13:39;;;;;;;32.75;6.65;;;21.90;52.50;;;;;;4325786;33;20078;-39
2021/06/07 01:16:05;;;;;;;10.18;4.85;;;22.20;52.00;;;;;;4313711;33;20091;-39
2021/06/07 01:18:32;;;;;;;7.65;4.07;;;22.40;51.50;;;;;;4313869;33;20082;-39
2021/06/07 01:21:05;;;;;;;16.12;4.95;;;22.60;51.00;;;;;;4326108;33;20078;-39
2021/06/07 01:23:32;;;;;;;16.85;5.43;;;22.70;50.60;;;;;;4326230;33;20543;-39
2021/06/07 01:26:01;;;;;;;10.30;4.82;;;22.90;50.60;;;;;;4325844;33;20638;-42
2021/06/07 01:28:28;;;;;;;17.15;5.57;;;22.90;49.90;;;;;;4314387;33;20078;-38
2021/06/07 01:30:54;;;;;;;7.10;4.00;;;23.00;49.60;;;;;;4325603;33;20490;-39
2021/06/07 01:33:23;;;;;;;8.63;3.95;;;23.00;48.80;;;;;;4334664;33;20075;-44
2021/06/07 01:35:51;;;;;;;18.37;5.40;;;23.10;48.50;;;;;;4328349;33;20533;-39
2021/06/07 01:38:18;;;;;;;10.88;4.25;;;23.20;48.70;;;;;;4341318;33;20168;-39
2021/06/07 01:40:47;;;;;;;16.77;3.33;;;23.20;48.30;;;;;;4329184;33;20071;-39
2021/06/07 01:43:14;;;;;;;9.82;2.25;;;23.30;47.90;;;;;;4341212;33;20059;-39
2021/06/07 01:45:45;;;;;;;4.55;2.00;;;23.40;47.40;;;;;;4329793;33;20490;-39
2021/06/07 01:48:12;;;;;;;11.48;3.70;;;23.60;46.80;;;;;;4329723;33;20144;-37
2021/06/07 01:50:39;;;;;;;9.70;3.08;;;23.70;46.40;;;;;;4328224;33;20078;-38
2021/06/07 01:53:07;;;;;;;10.98;2.70;;;23.90;45.70;;;;;;4327893;33;20068;-38
2021/06/07 01:55:36;;;;;;;23.55;2.85;;;24.00;44.90;;;;;;4328262;33;20082;-38
2021/06/07 01:58:04;;;;;;;7.18;2.95;;;24.10;44.90;;;;;;4328173;33;20070;-38
2021/06/07 02:00:40;;;;;;;8.75;2.12;;;24.30;44.60;;;;;;4326419;33;20236;-38
2021/06/07 02:03:07;;;;;;;4.07;2.08;;;24.40;44.00;;;;;;4327998;33;20110;-39
2021/06/07 02:05:36;;;;;;;11.90;2.35;;;24.60;43.10;;;;;;4326571;33;20071;-38
2021/06/07 02:08:07;;;;;;;5.30;1.80;;;24.60;42.80;;;;;;4329612;33;20124;-37
2021/06/07 02:10:44;;;;;;;5.03;1.58;;;24.70;43.30;;;;;;4330823;33;20150;-40
2021/06/07 02:13:11;;;;;;;10.40;2.12;;;24.80;43.10;;;;;;4329298;33;20055;-38
2021/06/07 02:15:37;;;;;;;6.95;1.70;;;24.80;42.00;;;;;;4329294;33;20067;-39
2021/06/07 02:18:05;;;;;;;2.97;1.35;;;24.90;41.90;;;;;;4313394;33;20083;-39
2021/06/07 02:20:32;;;;;;;13.40;1.77;;;25.00;41.50;;;;;;4313716;33;20553;-39
2021/06/07 02:22:58;;;;;;;2.47;0.90;;;25.10;41.20;;;;;;4313802;33;20079;-40
2021/06/07 02:25:25;;;;;;;8.65;1.77;;;25.20;40.20;;;;;;4313453;33;20603;-39
2021/06/07 02:27:51;;;;;;;7.60;1.30;;;25.40;39.80;;;;;;4313342;33;20638;-38
2021/06/07 02:30:22;;;;;;;7.50;1.25;;;25.50;39.30;;;;;;4313647;33;20076;-39
2021/06/07 02:32:49;;;;;;;13.77;2.80;;;25.70;39.00;;;;;;4319135;33;20067;-38
2021/06/07 02:35:17;;;;;;;2.87;1.70;;;25.80;38.90;;;;;;4328474;33;20078;-38
2021/06/07 02:37:45;;;;;;;6.22;1.17;;;25.90;38.90;;;;;;4328417;33;20070;-38
2021/06/07 02:40:13;;;;;;;3.85;1.30;;;26.00;38.70;;;;;;4328032;33;20078;-39
2021/06/07 02:42:40;;;;;;;4.95;1.30;;;26.10;38.30;;;;;;4328019;33;20083;-39
2021/06/07 02:45:13;;;;;;;4.30;1.85;;;26.30;38.70;;;;;;4328193;33;20073;-38
2021/06/07 02:47:41;;;;;;;8.35;1.45;;;26.40;38.20;;;;;;4327697;33;20067;-38
2021/06/07 02:50:10;;;;;;;7.80;0.90;;;26.60;38.20;;;;;;4327750;33;20078;-39
2021/06/07 02:52:46;;;;;;;2.87;0.95;;;26.80;37.20;;;;;;4315594;33;20528;-38
2021/06/07 02:55:41;;;;;;;10.35;1.15;;;26.90;36.70;;;;;;4309416;33;20646;-39
2021/06/07 02:58:07;;;;;;;9.60;1.30;;;27.10;36.70;;;;;;4316657;33;20102;-39
2021/06/07 03:00:52;;;;;;;4.30;0.93;;;27.20;36.20;;;;;;4315582;33;20168;-44
2021/06/07 03:03:19;;;;;;;10.95;1.25;;;27.30;35.70;;;;;;4327646;33;20071;-39
2021/06/07 03:05:47;;;;;;;2.45;1.70;;;27.50;36.60;;;;;;4327531;33;20063;-40
2021/06/07 03:08:16;;;;;;;7.43;0.98;;;27.60;37.10;;;;;;4327842;33;20078;-39
2021/06/07 03:10:44;;;;;;;5.65;1.73;;;27.80;37.00;;;;;;4327478;33;20533;-40
2021/06/07 03:13:11;;;;;;;4.07;1.52;;;28.00;36.60;;;;;;4309083;33;20143;-41
2021/06/07 03:15:37;;;;;;;9.82;1.52;;;28.20;36.20;;;;;;4312508;33;20075;-40
2021/06/07 03:18:04;;;;;;;20.98;3.20;;;28.50;36.00;;;;;;4300706;33;20060;-40
2021/06/07 03:20:31;;;;;;;9.68;3.12;;;28.60;36.00;;;;;;4312904;33;20082;-39
2021/06/07 03:23:01;;;;;;;25.33;4.65;;;28.80;37.30;;;;;;4312810;33;20065;-40
2021/06/07 03:25:29;;;;;;;10.05;4.22;;;28.90;38.00;;;;;;4312832;33;20051;-41
2021/06/07 03:27:56;;;;;;;15.40;5.28;;;29.00;38.50;;;;;;4314980;33;20087;-39
2021/06/07 03:30:23;;;;;;;14.70;4.65;;;29.00;38.80;;;;;;4314643;33;20553;-40
2021/06/07 03:32:49;;;;;;;19.80;4.32;;;29.00;38.40;;;;;;4320679;33;20056;-40
2021/06/07 03:35:17;;;;;;;14.55;4.03;;;29.00;38.00;;;;;;4316103;33;20174;-40
2021/06/07 03:37:43;;;;;;;18.20;4.03;;;29.10;37.40;;;;;;4329260;33;20216;-40
2021/06/07 03:40:13;;;;;;;11.82;3.83;;;29.30;37.60;;;;;;4329369;33;20138;-40
2021/06/07 03:42:40;;;;;;;12.20;4.78;;;29.50;38.10;;;;;;4329519;33;20150;-40
2021/06/07 03:45:08;;;;;;;16.42;4.90;;;29.70;38.50;;;;;;4329458;33;20146;-39
2021/06/07 03:47:34;;;;;;;18.02;4.87;;;29.80;38.10;;;;;;4329632;33;20135;-40
2021/06/07 03:50:01;;;;;;;17.40;4.32;;;29.90;38.10;;;;;;4329490;33;20086;-40
2021/06/07 03:52:27;;;;;;;8.48;3.97;;;30.10;37.80;;;;;;4315965;33;20130;-39
2021/06/07 03:54:54;;;;;;;8.40;3.22;;;30.40;38.00;;;;;;4329546;33;20503;-40
2021/06/07 03:57:20;;;;;;;18.08;5.57;;;30.70;37.80;;;;;;4329361;33;20471;-40
2021/06/07 03:59:46;;;;;;;10.27;5.05;;;30.90;37.80;;;;;;4329349;33;20146;-39
2021/06/07 04:02:13;;;;;;;12.35;4.95;;;31.20;37.50;;;;;;4329082;33;20062;-40
2021/06/07 04:04:42;;;;;;;10.98;4.65;;;31.60;37.20;;;;;;4282925;33;20073;-39
2021/06/07 04:07:08;;;;;;;11.77;4.57;;;31.80;36.40;;;;;;4282659;33;20178;-39
2021/06/07 04:09:35;;;;;;;13.85;4.07;;;32.10;35.80;;;;;;4283141;33;20480;-40
2021/06/07 04:12:02;;;;;;;14.52;4.43;;;32.40;35.70;;;;;;4283236;33;20068;-40
2021/06/07 04:14:29;;;;;;;9.45;4.55;;;32.70;35.40;;;;;;4311857;33;20138;-39
2021/06/07 04:16:55;;;;;;;9.98;5.15;;;33.00;34.70;;;;;;4311929;33;20071;-40
2021/06/07 04:19:21;;;;;;;10.95;5.22;;;33.10;34.30;;;;;;4311808;33;20164;-39
2021/06/07 04:21:48;;;;;;;11.85;5.05;;;33.00;33.80;;;;;;4311573;33;20162;-40
2021/06/07 04:24:14;;;;;;;19.55;5.90;;;32.80;33.80;;;;;;4311659;33;20094;-39
2021/06/07 04:26:41;;;;;;;21.77;7.97;;;32.80;34.70;;;;;;4311436;33;20159;-41
2021/06/07 04:29:07;;;;;;;10.52;6.32;;;32.80;34.60;;;;;;4311857;33;20164;-41
2021/06/07 04:31:34;;;;;;;8.45;5.82;;;32.80;34.40;;;;;;4311181;33;20067;-40
2021/06/07 04:34:00;;;;;;;12.63;5.70;;;32.80;34.20;;;;;;4299432;33;20074;-39
2021/06/07 04:36:27;;;;;;;15.82;6.53;;;32.90;34.60;;;;;;4299334;33;20089;-42
2021/06/07 04:38:53;;;;;;;13.18;5.60;;;33.10;34.30;;;;;;4311272;33;20149;-40
2021/06/07 04:41:20;;;;;;;13.05;6.32;;;33.20;34.20;;;;;;4319759;32;20055;-42
2021/06/07 04:43:46;;;;;;;14.55;6.45;;;33.20;34.30;;;;;;4358129;32;20544;-40
2021/06/07 04:46:13;;;;;;;12.25;5.82;;;33.20;33.90;;;;;;4357829;32;20208;-41
2021/06/07 04:48:39;;;;;;;10.63;5.65;;;33.20;34.10;;;;;;4358667;32;20099;-41
2021/06/07 04:51:06;;;;;;;9.13;5.22;;;33.10;33.70;;;;;;4358348;32;20174;-41
2021/06/07 04:53:32;;;;;;;10.15;6.35;;;33.00;33.80;;;;;;4358355;32;20561;-41
2021/06/07 04:55:59;;;;;;;9.85;5.68;;;32.90;33.90;;;;;;4345265;32;20173;-41
2021/06/07 04:58:30;;;;;;;13.02;5.78;;;32.80;33.90;;;;;;4325820;33;20174;-40
2021/06/07 05:01:08;;;;;;;8.38;5.22;;;32.70;34.00;;;;;;4326180;33;20162;-41
2021/06/07 05:03:35;;;;;;;14.75;6.20;;;32.60;34.40;;;;;;4325963;33;20106;-41
2021/06/07 05:06:03;;;;;;;15.45;6.28;;;32.70;34.60;;;;;;4326253;33;20120;-41
2021/06/07 05:08:30;;;;;;;15.02;6.40;;;32.80;34.80;;;;;;4325710;33;20521;-41
2021/06/07 05:10:57;;;;;;;14.77;6.75;;;32.90;34.10;;;;;;4325918;33;20166;-40
2021/06/07 05:13:24;;;;;;;10.43;5.80;;;32.90;34.00;;;;;;4317846;33;20150;-40
2021/06/07 05:15:52;;;;;;;5.72;5.15;;;32.90;33.80;;;;;;4310917;33;20500;-41
2021/06/07 05:18:18;;;;;;;8.48;6.00;;;33.00;33.70;;;;;;4299090;33;20070;-41
2021/06/07 05:20:45;;;;;;;8.00;5.53;;;33.10;33.80;;;;;;4311299;33;20088;-41
2021/06/07 05:23:12;;;;;;;9.55;5.90;;;33.30;33.50;;;;;;4311090;33;20084;-40
2021/06/07 05:25:40;;;;;;;10.23;6.30;;;33.50;33.60;;;;;;4299421;33;20059;-41
2021/06/07 05:28:09;;;;;;;19.92;6.55;;;33.80;33.10;;;;;;4311386;33;20125;-41
2021/06/07 05:30:36;;;;;;;11.75;6.87;;;33.90;32.90;;;;;;4327722;33;20518;-42
2021/06/07 05:33:03;;;;;;;15.50;5.82;;;34.10;32.90;;;;;;4326393;33;20097;-41
2021/06/07 05:35:32;;;;;;;10.50;6.32;;;34.20;32.10;;;;;;4328160;33;20062;-41
2021/06/07 05:37:59;;;;;;;6.55;5.40;;;34.20;32.10;;;;;;4327778;33;20205;-42
2021/06/07 05:40:27;;;;;;;11.68;5.55;;;34.30;31.90;;;;;;4327855;33;20071;-41
2021/06/07 05:42:54;;;;;;;6.93;4.97;;;34.30;32.40;;;;;;4331059;33;20147;-40
2021/06/07 05:45:21;;;;;;;11.00;5.37;;;34.40;32.40;;;;;;4331191;33;20149;-41
2021/06/07 05:47:48;;;;;;;11.10;5.85;;;34.50;32.30;;;;;;4331537;33;20212;-48
2021/06/07 05:50:20;;;;;;;7.43;5.40;;;34.70;32.30;;;;;;4330822;33;20055;-42
2021/06/07 05:52:48;;;;;;;9.95;5.32;;;35.00;31.70;;;;;;4331008;33;20463;-41
2021/06/07 05:55:21;;;;;;;12.18;5.75;;;35.00;31.30;;;;;;4330944;33;20167;-41
2021/06/07 05:57:49;;;;;;;10.60;4.83;;;34.90;31.70;;;;;;4330918;33;20608;-41
2021/06/07 06:00:18;;;;;;;7.93;4.18;;;34.80;31.60;;;;;;4330781;33;20570;-41
2021/06/07 06:02:45;;;;;;;7.95;4.22;;;34.90;30.80;;;;;;4330848;33;20091;-42
2021/06/07 06:05:12;;;;;;;5.80;3.72;;;35.10;31.10;;;;;;4329009;33;20063;-41
2021/06/07 06:07:39;;;;;;;10.90;4.55;;;35.30;30.80;;;;;;4331284;33;20073;-41
2021/06/07 06:10:06;;;;;;;9.32;3.42;;;35.40;30.60;;;;;;4330610;33;20129;-41
2021/06/07 06:12:33;;;;;;;9.05;4.12;;;35.50;30.70;;;;;;4336356;32;20138;-41
2021/06/07 06:14:59;;;;;;;10.30;4.12;;;35.50;31.20;;;;;;4360542;32;20065;-41
2021/06/07 06:17:26;;;;;;;9.95;3.97;;;35.60;30.80;;;;;;4360269;32;20063;-41
2021/06/07 06:19:52;;;;;;;11.38;4.60;;;35.60;30.50;;;;;;4360002;32;20070;-41
2021/06/07 06:22:19;;;;;;;9.45;5.37;;;35.60;31.20;;;;;;4359765;32;20069;-41
2021/06/07 06:24:46;;;;;;;8.65;4.80;;;35.70;31.40;;;;;;4346411;32;20066;-40
2021/06/07 06:27:14;;;;;;;14.90;5.68;;;35.80;31.40;;;;;;4360266;32;20066;-41
2021/06/07 06:29:41;;;;;;;9.18;4.35;;;35.90;31.50;;;;;;4360051;32;20074;-41
2021/06/07 06:32:09;;;;;;;10.48;5.37;;;36.00;31.40;;;;;;4359630;32;20058;-40
2021/06/07 06:34:37;;;;;;;12.07;4.75;;;36.10;31.70;;;;;;4360108;32;20569;-41
2021/06/07 06:37:04;;;;;;;10.32;4.90;;;36.20;31.20;;;;;;4360170;32;20153;-40
2021/06/07 06:39:30;;;;;;;9.95;4.70;;;36.30;31.00;;;;;;4359957;32;20066;-40
2021/06/07 06:41:57;;;;;;;12.60;6.00;;;36.30;30.60;;;;;;4359983;32;20067;-40
2021/06/07 06:44:23;;;;;;;10.13;7.03;;;36.10;30.10;;;;;;4345883;32;20498;-40
2021/06/07 06:46:50;;;;;;;8.65;6.30;;;36.00;30.10;;;;;;4359454;32;20084;-40
2021/06/07 06:49:16;;;;;;;11.02;5.50;;;35.60;29.80;;;;;;4360025;32;20078;-40
2021/06/07 06:51:43;;;;;;;10.90;5.45;;;35.30;30.30;;;;;;4360115;32;20067;-40
2021/06/07 06:54:10;;;;;;;9.35;6.15;;;35.00;30.50;;;;;;4359605;32;20074;-40
2021/06/07 06:56:36;;;;;;;9.15;5.30;;;34.80;30.90;;;;;;4359629;32;20086;-40
2021/06/07 06:59:03;;;;;;;8.75;4.20;;;34.50;30.80;;;;;;4359209;32;20190;-39
2021/06/07 07:01:30;;;;;;;11.25;5.03;;;34.30;31.00;;;;;;4359621;32;20451;-40
2021/06/07 07:03:56;;;;;;;9.98;2.92;;;34.30;31.40;;;;;;4346047;32;20070;-39
2021/06/07 07:06:26;;;;;;;7.57;1.85;;;34.20;31.40;;;;;;4359465;32;20206;-40
2021/06/07 07:08:53;;;;;;;7.28;1.60;;;34.30;31.20;;;;;;4359804;32;20444;-40
2021/06/07 07:11:19;;;;;;;8.95;1.98;;;34.40;30.00;;;;;;4359390;32;20062;-40
2021/06/07 07:13:46;;;;;;;7.75;1.17;;;34.60;31.00;;;;;;4349362;32;20144;-41
2021/06/07 07:16:13;;;;;;;11.90;2.15;;;34.70;30.00;;;;;;4331064;33;20070;-41
2021/06/07 07:18:39;;;;;;;6.40;1.58;;;34.90;29.50;;;;;;4344447;32;20079;-40
2021/06/07 07:21:06;;;;;;;6.90;1.75;;;34.90;29.20;;;;;;4344363;33;20075;-40
2021/06/07 07:23:33;;;;;;;2.05;1.17;;;35.10;29.40;;;;;;4344549;32;20059;-40
2021/06/07 07:26:01;;;;;;;5.12;1.60;;;35.20;28.70;;;;;;4344672;32;20495;-40
2021/06/07 07:28:27;;;;;;;5.80;1.70;;;35.30;28.70;;;;;;4344637;33;20078;-40
2021/06/07 07:30:54;;;;;;;7.75;2.25;;;35.40;28.90;;;;;;4344216;32;20651;-40
2021/06/07 07:33:22;;;;;;;3.28;1.52;;;35.50;29.10;;;;;;4344184;32;20134;-41
2021/06/07 07:35:48;;;;;;;6.40;1.92;;;35.60;28.80;;;;;;4344434;32;20075;-41
2021/06/07 07:38:15;;;;;;;6.05;1.70;;;35.80;28.60;;;;;;4330781;32;20070;-41
2021/06/07 07:40:42;;;;;;;6.70;3.17;;;36.00;28.50;;;;;;4344338;33;20094;-42
2021/06/07 07:43:09;;;;;;;4.07;1.10;;;36.20;27.50;;;;;;4344146;32;20524;-42
2021/06/07 07:45:40;;;;;;;2.85;1.00;;;36.40;27.00;;;;;;4344243;32;20066;-42
2021/06/07 07:48:07;;;;;;;5.62;0.82;;;36.40;26.40;;;;;;4344398;33;20089;-42
2021/06/07 07:50:34;;;;;;;6.20;0.93;;;36.40;27.00;;;;;;4344249;33;20168;-46
2021/06/07 07:53:01;;;;;;;6.05;1.42;;;36.50;27.00;;;;;;4344459;32;20102;-42
2021/06/07 07:55:31;;;;;;;3.90;0.80;;;36.60;27.30;;;;;;4330355;33;20519;-42
2021/06/07 07:57:58;;;;;;;5.90;1.00;;;36.70;27.00;;;;;;4343730;32;20075;-41
2021/06/07 08:00:27;;;;;;;2.62;0.85;;;36.80;27.10;;;;;;4343936;33;20145;-42
2021/06/07 08:02:54;;;;;;;2.87;0.70;;;36.80;26.50;;;;;;4343789;32;20087;-41
2021/06/07 08:05:21;;;;;;;33.53;1.40;;;36.70;26.40;;;;;;4342795;32;20565;-41
2021/06/07 08:07:47;;;;;;;3.28;0.73;;;36.50;26.90;;;;;;4330230;33;20094;-40
2021/06/07 08:10:14;;;;;;;10.73;1.08;;;36.20;26.90;;;;;;4343959;32;20083;-41
2021/06/07 08:12:41;;;;;;;2.35;0.82;;;36.00;27.50;;;;;;4333504;32;20117;-40
2021/06/07 08:15:09;;;;;;;6.32;0.85;;;35.90;27.40;;;;;;4344977;32;20104;-40
2021/06/07 08:17:35;;;;;;;5.93;1.00;;;35.70;27.30;;;;;;4358556;32;20070;-40
2021/06/07 08:20:08;;;;;;;11.02;1.17;;;35.60;27.40;;;;;;4358911;32;20085;-40
2021/06/07 08:22:35;;;;;;;8.43;1.20;;;35.70;27.50;;;;;;4358884;32;20082;-40
2021/06/07 08:25:01;;;;;;;6.18;1.75;;;35.70;27.30;;;;;;4358218;32;20097;-40
2021/06/07 08:27:29;;;;;;;5.72;1.00;;;35.90;27.50;;;;;;4358326;32;20150;-40
2021/06/07 08:29:56;;;;;;;5.68;1.05;;;36.00;27.20;;;;;;4358461;32;20063;-41
2021/06/07 08:32:23;;;;;;;3.83;0.88;;;36.10;27.00;;;;;;4358107;32;20116;-41
2021/06/07 08:34:49;;;;;;;6.75;1.90;;;36.30;27.40;;;;;;4358604;32;20072;-40
2021/06/07 08:37:16;;;;;;;10.00;2.80;;;36.40;27.30;;;;;;4358467;32;20178;-42
2021/06/07 08:39:43;;;;;;;2.25;1.10;;;36.40;27.90;;;;;;4358201;32;20102;-40
2021/06/07 08:42:10;;;;;;;15.52;1.77;;;36.20;27.80;;;;;;4358134;32;20181;-42
2021/06/07 08:44:40;;;;;;;4.95;0.90;;;36.20;27.80;;;;;;4358156;32;20071;-40
2021/06/07 08:47:07;;;;;;;2.00;0.93;;;36.20;28.30;;;;;;4358543;32;20514;-40
2021/06/07 08:49:33;;;;;;;4.93;0.82;;;36.30;27.90;;;;;;4358241;32;20232;-40
2021/06/07 08:52:00;;;;;;;6.03;1.17;;;36.60;28.10;;;;;;4358054;32;20078;-40
2021/06/07 08:54:27;;;;;;;11.15;1.17;;;36.80;28.20;;;;;;4358104;32;20554;-39
2021/06/07 08:56:53;;;;;;;5.50;0.80;;;37.10;28.30;;;;;;4357801;32;20070;-40
2021/06/07 08:59:19;;;;;;;4.22;0.70;;;37.30;28.20;;;;;;4344403;32;20096;-41
2021/06/07 09:01:46;;;;;;;4.30;0.70;;;37.50;26.90;;;;;;4357799;32;20063;-42
2021/06/07 09:04:18;;;;;;;1.30;0.68;;;37.80;25.70;;;;;;4358007;32;20069;-40
2021/06/07 09:06:46;;;;;;;16.30;0.90;;;38.30;25.60;;;;;;4357517;32;20101;-41
2021/06/07 09:09:15;;;;;;;8.05;0.95;;;38.50;26.80;;;;;;4344329;32;20590;-44
2021/06/07 09:12:04;;;;;;;3.37;1.23;;;38.70;26.80;;;;;;4357968;32;20152;-40
2021/06/07 09:14:39;;;;;;;4.68;1.10;;;38.80;26.90;;;;;;4329897;33;20171;-40
2021/06/07 09:17:25;;;;;;;4.53;1.00;;;38.70;26.60;;;;;;4343109;32;20091;-41
2021/06/07 09:20:14;;;;;;;6.25;0.90;;;38.60;26.30;;;;;;4343375;33;20093;-41
2021/06/07 09:22:52;;;;;;;3.78;0.80;;;38.40;26.10;;;;;;4343408;32;20583;-42
2021/06/07 09:25:23;;;;;;;7.75;0.85;;;38.10;26.30;;;;;;4329018;33;20125;-40
2021/06/07 09:28:11;;;;;;;3.60;0.80;;;37.90;26.80;;;;;;4342988;32;20064;-40
2021/06/07 09:30:52;;;;;;;5.32;1.67;;;37.70;26.90;;;;;;4328926;32;20070;-40
2021/06/07 09:33:37;;;;;;;4.00;1.15;;;37.60;26.70;;;;;;4342658;33;20206;-40
2021/06/07 09:36:29;;;;;;;5.00;0.80;;;37.40;26.40;;;;;;4343016;32;20062;-41
2021/06/07 09:39:24;;;;;;;2.30;0.85;;;37.10;26.40;;;;;;4343097;33;20085;-40
2021/06/07 09:42:13;;;;;;;3.50;0.80;;;36.70;26.00;;;;;;4329040;33;20287;-41
2021/06/07 09:44:53;;;;;;;2.20;0.80;;;36.60;26.60;;;;;;4330234;33;20055;-41
2021/06/07 09:47:29;;;;;;;4.72;0.68;;;36.40;26.60;;;;;;4342797;32;20074;-41
2021/06/07 09:49:58;;;;;;;8.98;1.00;;;36.30;27.20;;;;;;4342630;32;20187;-40
2021/06/07 09:52:31;;;;;;;2.42;0.77;;;36.20;27.80;;;;;;4342577;32;20085;-40
2021/06/07 09:55:24;;;;;;;3.65;0.93;;;36.20;27.50;;;;;;4342713;32;20571;-39
2021/06/07 09:58:00;;;;;;;9.38;1.37;;;36.10;27.70;;;;;;4342907;32;20094;-40
2021/06/07 10:00:50;;;;;;;5.55;1.00;;;36.20;28.00;;;;;;4342590;33;20156;-40
2021/06/07 10:03:23;;;;;;;6.35;1.50;;;36.20;28.00;;;;;;4342567;32;20550;-40
2021/06/07 10:05:56;;;;;;;6.65;1.20;;;36.20;28.30;;;;;;4329297;32;20101;-41
2021/06/07 10:08:23;;;;;;;6.03;1.00;;;36.30;27.90;;;;;;4342641;33;20071;-39
2021/06/07 10:10:51;;;;;;;12.43;1.12;;;36.40;27.70;;;;;;4341869;32;20173;-40
2021/06/07 10:13:17;;;;;;;4.32;0.73;;;36.60;27.60;;;;;;4336229;32;20516;-41
2021/06/07 10:15:46;;;;;;;8.18;0.80;;;36.70;27.50;;;;;;4343415;32;20109;-39
2021/06/07 10:18:20;;;;;;;9.80;1.37;;;36.70;28.10;;;;;;4357300;32;20142;-40
2021/06/07 10:20:51;;;;;;;3.80;1.12;;;36.70;27.70;;;;;;4357333;32;20066;-40
2021/06/07 10:23:28;;;;;;;7.25;1.35;;;36.60;27.60;;;;;;4357848;32;20647;-40
2021/06/07 10:25:57;;;;;;;9.27;1.30;;;36.40;27.50;;;;;;4357224;32;20503;-40
2021/06/07 10:28:42;;;;;;;5.97;0.82;;;36.20;27.70;;;;;;4358141;32;20067;-41
2021/06/07 10:31:17;;;;;;;9.50;1.45;;;36.00;27.60;;;;;;4333649;32;20067;-40
2021/06/07 10:34:04;;;;;;;1.50;0.60;;;35.90;27.90;;;;;;4346234;32;20148;-39
2021/06/07 10:36:33;;;;;;;4.32;0.80;;;35.90;27.40;;;;;;4346371;32;20069;-40
2021/06/07 10:39:16;;;;;;;3.87;0.80;;;35.90;27.60;;;;;;4359809;32;20066;-40
2021/06/07 10:42:04;;;;;;;4.07;1.08;;;36.00;27.60;;;;;;4359979;32;20082;-40
2021/06/07 10:44:44;;;;;;;2.75;0.93;;;36.00;27.10;;;;;;4351922;32;20092;-40
2021/06/07 10:47:20;;;;;;;6.07;0.75;;;36.20;27.10;;;;;;4359931;32;20070;-41
2021/06/07 10:50:05;;;;;;;5.37;2.42;;;36.40;26.80;;;;;;4359534;32;20154;-40
2021/06/07 10:52:50;;;;;;;6.68;0.75;;;36.60;26.90;;;;;;4359757;32;20051;-40
2021/06/07 10:55:25;;;;;;;4.03;0.60;;;36.80;26.70;;;;;;4359820;32;20177;-41
2021/06/07 10:57:54;;;;;;;4.82;0.68;;;36.90;26.40;;;;;;4359418;32;20067;-40
2021/06/07 11:00:35;;;;;;;1.77;0.40;;;37.00;26.20;;;;;;4359938;32;20086;-41
2021/06/07 11:03:25;;;;;;;5.32;0.77;;;37.10;26.30;;;;;;4347502;32;20082;-41
2021/06/07 11:05:57;;;;;;;0.80;0.55;;;37.40;26.20;;;;;;4347751;32;20541;-40
2021/06/07 11:08:30;;;;;;;2.00;0.45;;;37.40;25.50;;;;;;4359364;32;20502;-43
2021/06/07 11:11:09;;;;;;;4.95;0.50;;;37.40;25.70;;;;;;4359773;32;20068;-42
2021/06/07 11:13:51;;;;;;;1.10;0.50;;;37.50;25.80;;;;;;4336142;32;20075;-41
2021/06/07 11:16:35;;;;;;;3.47;0.50;;;37.40;25.50;;;;;;4344853;32;20197;-42
2021/06/07 11:19:03;;;;;;;3.50;0.40;;;37.40;25.50;;;;;;4331106;33;20519;-41
2021/06/07 11:21:34;;;;;;;2.53;0.37;;;37.30;25.20;;;;;;4344791;33;20531;-40
2021/06/07 11:24:01;;;;;;;5.47;1.15;;;37.20;25.60;;;;;;4344829;33;20066;-41
2021/06/07 11:26:40;;;;;;;4.00;0.50;;;37.10;25.60;;;;;;4331300;33;20067;-40
2021/06/07 11:29:12;;;;;;;3.97;0.60;;;37.00;25.90;;;;;;4344645;32;20126;-40
2021/06/07 11:31:47;;;;;;;2.50;0.50;;;37.00;25.50;;;;;;4344341;33;20559;-40
2021/06/07 11:34:20;;;;;;;1.75;0.40;;;37.00;25.80;;;;;;4344331;32;20130;-41
2021/06/07 11:36:50;;;;;;;5.40;0.50;;;37.00;25.90;;;;;;4344392;32;20070;-40
2021/06/07 11:39:21;;;;;;;7.15;0.80;;;37.00;25.40;;;;;;4344299;32;20062;-41
2021/06/07 11:41:58;;;;;;;4.15;0.40;;;36.90;25.60;;;;;;4344246;32;20515;-41
2021/06/07 11:44:43;;;;;;;5.80;0.98;;;36.90;25.80;;;;;;4344459;32;20069;-40
2021/06/07 11:47:33;;;;;;;3.33;0.50;;;36.80;26.30;;;;;;4344072;32;20455;-41
2021/06/07 11:50:00;;;;;;;3.97;0.50;;;36.70;26.00;;;;;;4335961;32;20522;-41
2021/06/07 11:52:33;;;;;;;0.77;0.50;;;36.70;26.00;;;;;;4344571;32;20070;-41
2021/06/07 11:55:17;;;;;;;2.90;0.60;;;36.70;26.20;;;;;;4344259;33;20507;-42
2021/06/07 11:57:43;;;;;;;1.17;0.60;;;36.70;26.70;;;;;;4344145;33;20077;-42
2021/06/07 12:00:11;;;;;;;2.42;0.50;;;36.70;26.60;;;;;;4311544;33;20188;-42
2021/06/07 12:02:37;;;;;;;3.37;0.40;;;36.70;26.50;;;;;;4311974;33;20079;-41
2021/06/07 12:05:09;;;;;;;6.47;0.65;;;36.60;26.40;;;;;;4312011;33;20087;-40
2021/06/07 12:07:37;;;;;;;4.93;0.52;;;36.50;26.70;;;;;;4312260;33;20150;-40
2021/06/07 12:10:05;;;;;;;1.90;0.50;;;36.40;26.80;;;;;;4312486;33;20098;-40
2021/06/07 12:12:33;;;;;;;1.92;0.50;;;36.40;27.30;;;;;;4285297;33;20098;-41
2021/06/07 12:15:29;;;;;;;3.28;0.40;;;36.40;26.90;;;;;;4297778;33;20083;-41
2021/06/07 12:17:59;;;;;;;3.83;0.70;;;36.40;26.80;;;;;;4268249;33;20091;-41
2021/06/07 12:20:25;;;;;;;6.62;0.60;;;36.40;27.20;;;;;;4268059;33;20154;-40
2021/06/07 12:22:56;;;;;;;4.85;0.70;;;36.50;26.80;;;;;;4268144;33;20072;-41
2021/06/07 12:30:53;;;;;;;2.50;0.40;;;36.90;25.20;;;;;;4267822;33;20527;-41
2021/06/07 12:33:33;;;;;;;2.97;0.47;;;37.00;25.20;;;;;;4268201;33;20072;-41
2021/06/07 12:36:01;;;;;;;4.72;0.50;;;37.20;25.30;;;;;;4268292;33;20075;-41
2021/06/07 12:38:27;;;;;;;4.25;0.50;;;37.40;26.20;;;;;;4280143;33;20114;-41
2021/06/07 12:40:55;;;;;;;2.20;0.45;;;37.30;25.90;;;;;;4282391;33;20105;-41
2021/06/07 12:43:29;;;;;;;4.87;0.73;;;37.30;25.90;;;;;;4288495;33;20079;-41
2021/06/07 12:46:01;;;;;;;1.80;0.47;;;37.20;26.30;;;;;;4285343;33;20082;-41
2021/06/07 12:48:29;;;;;;;2.95;0.50;;;37.20;26.40;;;;;;4296651;33;20159;-41
2021/06/07 12:51:04;;;;;;;1.12;0.40;;;37.10;25.90;;;;;;4296697;33;20578;-41
2021/06/07 12:53:54;;;;;;;2.65;0.50;;;37.10;25.50;;;;;;4307112;32;20066;-41
2021/06/07 12:56:27;;;;;;;2.65;0.50;;;37.10;25.90;;;;;;4357777;32;20190;-41
2021/06/07 12:58:57;;;;;;;3.60;0.70;;;37.00;26.00;;;;;;4358263;32;20062;-41
2021/06/07 13:01:38;;;;;;;3.37;0.55;;;37.00;26.30;;;;;;4357966;32;20067;-40
2021/06/07 13:04:05;;;;;;;3.40;0.50;;;37.10;26.40;;;;;;4358212;32;20565;-40